sensor_id;sensor_type;location;lat;lon;timestamp;temperature;humidity
71523;HTU21D;59343;51.102;5.884;2023-04-28T00:00:51;13.43;60.16
71523;HTU21D;59343;51.102;5.884;2023-04-28T00:03:17;13.31;60.72
71523;HTU21D;59343;51.102;5.884;2023-04-28T00:05:44;13.22;61.51
71523;HTU21D;59343;51.102;5.884;2023-04-28T00:08:09;13.22;62.76
71523;HTU21D;59343;51.102;5.884;2023-04-28T00:10:36;13.22;62.21
71523;HTU21D;59343;51.102;5.884;2023-04-28T00:13:01;13.17;61.75
71523;HTU21D;59343;51.102;5.884;2023-04-28T00:15:28;13.11;62.28
71523;HTU21D;59343;51.102;5.884;2023-04-28T00:17:54;13.09;62.02
71523;HTU21D;59343;51.102;5.884;2023-04-28T00:20:20;13.01;62.04
71523;HTU21D;59343;51.102;5.884;2023-04-28T00:22:46;12.97;62.51
71523;HTU21D;59343;51.102;5.884;2023-04-28T00:25:14;12.96;62.48
71523;HTU21D;59343;51.102;5.884;2023-04-28T00:27:42;12.90;62.93
71523;HTU21D;59343;51.102;5.884;2023-04-28T00:30:08;12.87;64.13
71523;HTU21D;59343;51.102;5.884;2023-04-28T00:32:34;12.90;64.34
71523;HTU21D;59343;51.102;5.884;2023-04-28T00:35:01;12.85;64.31
71523;HTU21D;59343;51.102;5.884;2023-04-28T00:37:27;12.85;64.87
71523;HTU21D;59343;51.102;5.884;2023-04-28T00:39:56;12.84;64.95
71523;HTU21D;59343;51.102;5.884;2023-04-28T00:42:23;12.80;65.17
71523;HTU21D;59343;51.102;5.884;2023-04-28T00:44:49;12.72;65.50
71523;HTU21D;59343;51.102;5.884;2023-04-28T00:47:17;12.65;66.15
71523;HTU21D;59343;51.102;5.884;2023-04-28T00:49:43;12.59;66.24
71523;HTU21D;59343;51.102;5.884;2023-04-28T00:52:10;12.55;66.57
71523;HTU21D;59343;51.102;5.884;2023-04-28T00:54:36;12.50;66.58
71523;HTU21D;59343;51.102;5.884;2023-04-28T00:57:03;12.44;66.63
71523;HTU21D;59343;51.102;5.884;2023-04-28T00:59:30;12.44;66.85
71523;HTU21D;59343;51.102;5.884;2023-04-28T01:01:56;12.41;66.84
71523;HTU21D;59343;51.102;5.884;2023-04-28T01:04:25;12.43;67.66
71523;HTU21D;59343;51.102;5.884;2023-04-28T01:06:54;12.45;67.54
71523;HTU21D;59343;51.102;5.884;2023-04-28T01:09:23;12.47;68.17
71523;HTU21D;59343;51.102;5.884;2023-04-28T01:11:51;12.48;68.07
71523;HTU21D;59343;51.102;5.884;2023-04-28T01:14:30;12.47;68.03
71523;HTU21D;59343;51.102;5.884;2023-04-28T01:16:57;12.50;68.10
71523;HTU21D;59343;51.102;5.884;2023-04-28T01:19:23;12.53;68.05
71523;HTU21D;59343;51.102;5.884;2023-04-28T01:21:50;12.57;68.50
71523;HTU21D;59343;51.102;5.884;2023-04-28T01:24:22;12.59;68.63
71523;HTU21D;59343;51.102;5.884;2023-04-28T01:26:49;12.60;68.65
71523;HTU21D;59343;51.102;5.884;2023-04-28T01:29:18;12.63;68.46
71523;HTU21D;59343;51.102;5.884;2023-04-28T01:31:44;12.63;68.30
71523;HTU21D;59343;51.102;5.884;2023-04-28T01:34:10;12.63;68.16
71523;HTU21D;59343;51.102;5.884;2023-04-28T01:36:36;12.63;68.42
71523;HTU21D;59343;51.102;5.884;2023-04-28T01:39:01;12.60;68.29
71523;HTU21D;59343;51.102;5.884;2023-04-28T01:41:28;12.60;68.94
71523;HTU21D;59343;51.102;5.884;2023-04-28T01:43:54;12.61;68.87
71523;HTU21D;59343;51.102;5.884;2023-04-28T01:46:20;12.59;68.76
71523;HTU21D;59343;51.102;5.884;2023-04-28T01:48:47;12.59;68.69
71523;HTU21D;59343;51.102;5.884;2023-04-28T01:51:12;12.60;68.78
71523;HTU21D;59343;51.102;5.884;2023-04-28T01:53:38;12.62;68.97
71523;HTU21D;59343;51.102;5.884;2023-04-28T01:56:04;12.62;68.95
71523;HTU21D;59343;51.102;5.884;2023-04-28T01:58:30;12.64;69.26
71523;HTU21D;59343;51.102;5.884;2023-04-28T02:00:57;12.64;68.96
71523;HTU21D;59343;51.102;5.884;2023-04-28T02:03:23;12.65;69.03
71523;HTU21D;59343;51.102;5.884;2023-04-28T02:05:49;12.64;69.39
71523;HTU21D;59343;51.102;5.884;2023-04-28T02:08:15;12.62;69.50
71523;HTU21D;59343;51.102;5.884;2023-04-28T02:10:41;12.61;69.45
71523;HTU21D;59343;51.102;5.884;2023-04-28T02:13:09;12.60;69.42
71523;HTU21D;59343;51.102;5.884;2023-04-28T02:15:41;12.60;69.88
71523;HTU21D;59343;51.102;5.884;2023-04-28T02:18:08;12.60;69.99
71523;HTU21D;59343;51.102;5.884;2023-04-28T02:20:38;12.57;70.25
71523;HTU21D;59343;51.102;5.884;2023-04-28T02:23:07;12.53;70.12
71523;HTU21D;59343;51.102;5.884;2023-04-28T02:25:33;12.58;70.26
71523;HTU21D;59343;51.102;5.884;2023-04-28T02:27:59;12.59;70.16
71523;HTU21D;59343;51.102;5.884;2023-04-28T02:30:25;12.59;70.39
71523;HTU21D;59343;51.102;5.884;2023-04-28T02:32:51;12.60;70.39
71523;HTU21D;59343;51.102;5.884;2023-04-28T02:35:17;12.60;70.66
71523;HTU21D;59343;51.102;5.884;2023-04-28T02:37:43;12.59;70.82
71523;HTU21D;59343;51.102;5.884;2023-04-28T02:40:09;12.59;71.28
71523;HTU21D;59343;51.102;5.884;2023-04-28T02:42:35;12.57;71.09
71523;HTU21D;59343;51.102;5.884;2023-04-28T02:45:04;12.59;71.34
71523;HTU21D;59343;51.102;5.884;2023-04-28T02:47:30;12.60;71.33
71523;HTU21D;59343;51.102;5.884;2023-04-28T02:49:56;12.59;71.67
71523;HTU21D;59343;51.102;5.884;2023-04-28T02:52:24;12.61;71.96
71523;HTU21D;59343;51.102;5.884;2023-04-28T02:54:50;12.62;72.06
71523;HTU21D;59343;51.102;5.884;2023-04-28T02:57:19;12.62;71.96
71523;HTU21D;59343;51.102;5.884;2023-04-28T02:59:45;12.63;72.23
71523;HTU21D;59343;51.102;5.884;2023-04-28T03:02:11;12.64;72.44
71523;HTU21D;59343;51.102;5.884;2023-04-28T03:04:37;12.66;72.43
71523;HTU21D;59343;51.102;5.884;2023-04-28T03:07:03;12.71;72.15
71523;HTU21D;59343;51.102;5.884;2023-04-28T03:09:30;12.72;72.35
71523;HTU21D;59343;51.102;5.884;2023-04-28T03:11:58;12.70;72.30
71523;HTU21D;59343;51.102;5.884;2023-04-28T03:14:24;12.69;72.26
71523;HTU21D;59343;51.102;5.884;2023-04-28T03:16:50;12.67;72.28
71523;HTU21D;59343;51.102;5.884;2023-04-28T03:19:16;12.66;72.61
71523;HTU21D;59343;51.102;5.884;2023-04-28T03:21:42;12.62;72.71
71523;HTU21D;59343;51.102;5.884;2023-04-28T03:24:11;12.51;73.10
71523;HTU21D;59343;51.102;5.884;2023-04-28T03:26:37;12.45;73.64
71523;HTU21D;59343;51.102;5.884;2023-04-28T03:29:03;12.45;73.98
71523;HTU21D;59343;51.102;5.884;2023-04-28T03:31:29;12.46;74.11
71523;HTU21D;59343;51.102;5.884;2023-04-28T03:33:55;12.47;74.54
71523;HTU21D;59343;51.102;5.884;2023-04-28T03:36:23;12.50;74.42
71523;HTU21D;59343;51.102;5.884;2023-04-28T03:38:49;12.53;74.41
71523;HTU21D;59343;51.102;5.884;2023-04-28T03:41:15;12.57;74.42
71523;HTU21D;59343;51.102;5.884;2023-04-28T03:43:59;12.61;74.57
71523;HTU21D;59343;51.102;5.884;2023-04-28T03:46:30;12.66;74.57
71523;HTU21D;59343;51.102;5.884;2023-04-28T03:48:57;12.72;74.71
71523;HTU21D;59343;51.102;5.884;2023-04-28T03:51:23;12.75;74.86
71523;HTU21D;59343;51.102;5.884;2023-04-28T03:53:52;12.79;74.89
71523;HTU21D;59343;51.102;5.884;2023-04-28T03:56:18;12.81;74.77
71523;HTU21D;59343;51.102;5.884;2023-04-28T03:58:44;12.85;74.68
71523;HTU21D;59343;51.102;5.884;2023-04-28T04:01:10;12.86;74.79
71523;HTU21D;59343;51.102;5.884;2023-04-28T04:03:36;12.88;74.90
71523;HTU21D;59343;51.102;5.884;2023-04-28T04:06:02;12.90;75.01
71523;HTU21D;59343;51.102;5.884;2023-04-28T04:08:29;12.91;75.08
71523;HTU21D;59343;51.102;5.884;2023-04-28T04:10:55;12.95;75.23
71523;HTU21D;59343;51.102;5.884;2023-04-28T04:13:24;12.95;75.11
71523;HTU21D;59343;51.102;5.884;2023-04-28T04:15:51;12.90;74.98
71523;HTU21D;59343;51.102;5.884;2023-04-28T04:18:18;12.85;75.19
71523;HTU21D;59343;51.102;5.884;2023-04-28T04:21:06;12.84;75.56
71523;HTU21D;59343;51.102;5.884;2023-04-28T04:23:33;12.82;75.92
71523;HTU21D;59343;51.102;5.884;2023-04-28T04:25:59;12.85;75.79
71523;HTU21D;59343;51.102;5.884;2023-04-28T04:28:25;12.87;75.85
71523;HTU21D;59343;51.102;5.884;2023-04-28T04:30:52;12.88;76.12
71523;HTU21D;59343;51.102;5.884;2023-04-28T04:33:17;12.89;76.24
71523;HTU21D;59343;51.102;5.884;2023-04-28T04:35:44;12.90;76.28
71523;HTU21D;59343;51.102;5.884;2023-04-28T04:38:11;12.92;76.21
71523;HTU21D;59343;51.102;5.884;2023-04-28T04:40:41;12.92;76.08
71523;HTU21D;59343;51.102;5.884;2023-04-28T04:43:18;12.94;76.05
71523;HTU21D;59343;51.102;5.884;2023-04-28T04:45:50;12.96;76.23
71523;HTU21D;59343;51.102;5.884;2023-04-28T04:48:19;12.96;76.41
71523;HTU21D;59343;51.102;5.884;2023-04-28T04:50:48;12.94;76.55
71523;HTU21D;59343;51.102;5.884;2023-04-28T04:53:20;12.93;76.61
71523;HTU21D;59343;51.102;5.884;2023-04-28T04:55:50;12.96;76.73
71523;HTU21D;59343;51.102;5.884;2023-04-28T04:58:22;12.97;76.76
71523;HTU21D;59343;51.102;5.884;2023-04-28T05:00:51;12.99;76.83
71523;HTU21D;59343;51.102;5.884;2023-04-28T05:03:17;12.99;77.10
71523;HTU21D;59343;51.102;5.884;2023-04-28T05:05:57;12.99;77.24
71523;HTU21D;59343;51.102;5.884;2023-04-28T05:08:41;13.00;77.38
71523;HTU21D;59343;51.102;5.884;2023-04-28T05:11:15;13.02;77.44
71523;HTU21D;59343;51.102;5.884;2023-04-28T05:13:44;13.03;77.40
71523;HTU21D;59343;51.102;5.884;2023-04-28T05:16:23;13.03;77.52
71523;HTU21D;59343;51.102;5.884;2023-04-28T05:19:22;13.05;77.49
71523;HTU21D;59343;51.102;5.884;2023-04-28T05:21:55;13.04;77.65
71523;HTU21D;59343;51.102;5.884;2023-04-28T05:24:23;13.05;77.69
71523;HTU21D;59343;51.102;5.884;2023-04-28T05:26:51;13.07;77.76
71523;HTU21D;59343;51.102;5.884;2023-04-28T05:29:22;13.07;77.79
71523;HTU21D;59343;51.102;5.884;2023-04-28T05:31:56;13.07;78.01
71523;HTU21D;59343;51.102;5.884;2023-04-28T05:34:25;13.09;78.23
71523;HTU21D;59343;51.102;5.884;2023-04-28T05:36:51;13.12;78.25
71523;HTU21D;59343;51.102;5.884;2023-04-28T05:39:19;13.15;78.43
71523;HTU21D;59343;51.102;5.884;2023-04-28T05:41:46;13.18;78.67
71523;HTU21D;59343;51.102;5.884;2023-04-28T05:44:20;13.17;78.75
71523;HTU21D;59343;51.102;5.884;2023-04-28T05:46:56;13.20;78.95
71523;HTU21D;59343;51.102;5.884;2023-04-28T05:49:34;13.20;78.98
71523;HTU21D;59343;51.102;5.884;2023-04-28T05:55:32;13.25;79.28
71523;HTU21D;59343;51.102;5.884;2023-04-28T05:58:04;13.31;79.39
71523;HTU21D;59343;51.102;5.884;2023-04-28T06:12:18;13.82;78.47
71523;HTU21D;59343;51.102;5.884;2023-04-28T06:27:00;13.99;77.45
71523;HTU21D;59343;51.102;5.884;2023-04-28T06:29:35;14.01;77.53
71523;HTU21D;59343;51.102;5.884;2023-04-28T06:32:02;14.07;77.50
71523;HTU21D;59343;51.102;5.884;2023-04-28T06:34:28;14.10;77.34
71523;HTU21D;59343;51.102;5.884;2023-04-28T06:36:57;14.05;77.33
71523;HTU21D;59343;51.102;5.884;2023-04-28T06:39:27;14.04;77.45
71523;HTU21D;59343;51.102;5.884;2023-04-28T06:41:53;14.00;77.48
71523;HTU21D;59343;51.102;5.884;2023-04-28T06:48:46;13.89;77.69
71523;HTU21D;59343;51.102;5.884;2023-04-28T06:51:19;13.84;77.98
71523;HTU21D;59343;51.102;5.884;2023-04-28T06:53:55;13.84;78.33
71523;HTU21D;59343;51.102;5.884;2023-04-28T07:05:29;13.99;78.95
71523;HTU21D;59343;51.102;5.884;2023-04-28T07:07:56;14.04;79.21
71523;HTU21D;59343;51.102;5.884;2023-04-28T07:14:04;14.32;78.95
71523;HTU21D;59343;51.102;5.884;2023-04-28T07:16:37;14.49;79.17
71523;HTU21D;59343;51.102;5.884;2023-04-28T07:19:06;14.73;78.82
71523;HTU21D;59343;51.102;5.884;2023-04-28T07:31:36;15.19;76.33
71523;HTU21D;59343;51.102;5.884;2023-04-28T07:34:54;15.19;77.03
71523;HTU21D;59343;51.102;5.884;2023-04-28T07:37:43;15.29;76.91
71523;HTU21D;59343;51.102;5.884;2023-04-28T07:40:30;15.28;76.73
71523;HTU21D;59343;51.102;5.884;2023-04-28T07:47:17;15.15;77.13
71523;HTU21D;59343;51.102;5.884;2023-04-28T07:49:44;15.14;77.15
71523;HTU21D;59343;51.102;5.884;2023-04-28T07:52:10;15.21;77.43
71523;HTU21D;59343;51.102;5.884;2023-04-28T07:54:40;15.19;77.74
71523;HTU21D;59343;51.102;5.884;2023-04-28T07:57:10;15.21;78.25
71523;HTU21D;59343;51.102;5.884;2023-04-28T08:03:34;15.36;78.48
71523;HTU21D;59343;51.102;5.884;2023-04-28T08:06:10;15.34;79.33
71523;HTU21D;59343;51.102;5.884;2023-04-28T08:09:11;15.32;80.27
71523;HTU21D;59343;51.102;5.884;2023-04-28T08:12:12;15.36;80.62
71523;HTU21D;59343;51.102;5.884;2023-04-28T08:14:42;15.38;81.04
71523;HTU21D;59343;51.102;5.884;2023-04-28T08:17:09;15.37;81.45
71523;HTU21D;59343;51.102;5.884;2023-04-28T08:20:17;15.33;81.84
71523;HTU21D;59343;51.102;5.884;2023-04-28T08:23:03;15.34;82.23
71523;HTU21D;59343;51.102;5.884;2023-04-28T08:25:30;15.32;82.66
71523;HTU21D;59343;51.102;5.884;2023-04-28T08:29:06;15.32;83.04
71523;HTU21D;59343;51.102;5.884;2023-04-28T08:31:42;15.33;83.07
71523;HTU21D;59343;51.102;5.884;2023-04-28T08:34:08;15.33;83.31
71523;HTU21D;59343;51.102;5.884;2023-04-28T08:36:37;15.31;83.44
71523;HTU21D;59343;51.102;5.884;2023-04-28T08:39:04;15.33;83.83
71523;HTU21D;59343;51.102;5.884;2023-04-28T08:44:56;15.43;84.00
71523;HTU21D;59343;51.102;5.884;2023-04-28T08:48:24;15.56;84.24
71523;HTU21D;59343;51.102;5.884;2023-04-28T08:54:58;15.96;83.71
71523;HTU21D;59343;51.102;5.884;2023-04-28T08:57:43;16.07;83.55
71523;HTU21D;59343;51.102;5.884;2023-04-28T09:00:45;16.14;82.89
71523;HTU21D;59343;51.102;5.884;2023-04-28T09:03:17;16.11;83.05
71523;HTU21D;59343;51.102;5.884;2023-04-28T09:05:44;16.10;83.15
71523;HTU21D;59343;51.102;5.884;2023-04-28T09:08:10;16.05;83.18
71523;HTU21D;59343;51.102;5.884;2023-04-28T09:10:37;15.99;83.42
71523;HTU21D;59343;51.102;5.884;2023-04-28T09:13:04;15.95;83.51
71523;HTU21D;59343;51.102;5.884;2023-04-28T09:15:35;15.92;83.63
71523;HTU21D;59343;51.102;5.884;2023-04-28T09:18:07;15.93;83.82
71523;HTU21D;59343;51.102;5.884;2023-04-28T09:20:43;15.95;83.65
71523;HTU21D;59343;51.102;5.884;2023-04-28T09:23:14;16.00;83.94
71523;HTU21D;59343;51.102;5.884;2023-04-28T09:26:06;16.10;83.79
71523;HTU21D;59343;51.102;5.884;2023-04-28T09:32:22;16.25;83.32
71523;HTU21D;59343;51.102;5.884;2023-04-28T09:34:54;16.34;82.89
71523;HTU21D;59343;51.102;5.884;2023-04-28T09:37:28;16.36;82.57
71523;HTU21D;59343;51.102;5.884;2023-04-28T09:40:09;16.31;82.87
71523;HTU21D;59343;51.102;5.884;2023-04-28T09:42:41;16.32;82.86
71523;HTU21D;59343;51.102;5.884;2023-04-28T09:45:17;16.46;83.34
71523;HTU21D;59343;51.102;5.884;2023-04-28T09:47:46;16.77;83.10
71523;HTU21D;59343;51.102;5.884;2023-04-28T09:50:18;17.18;82.36
71523;HTU21D;59343;51.102;5.884;2023-04-28T09:52:56;17.51;79.98
71523;HTU21D;59343;51.102;5.884;2023-04-28T09:55:24;17.59;78.92
71523;HTU21D;59343;51.102;5.884;2023-04-28T09:57:54;17.53;78.71
71523;HTU21D;59343;51.102;5.884;2023-04-28T10:00:22;17.49;78.78
71523;HTU21D;59343;51.102;5.884;2023-04-28T10:02:52;17.37;78.84
71523;HTU21D;59343;51.102;5.884;2023-04-28T10:05:34;17.18;79.33
71523;HTU21D;59343;51.102;5.884;2023-04-28T10:08:05;17.04;79.91
71523;HTU21D;59343;51.102;5.884;2023-04-28T10:10:33;17.02;80.22
71523;HTU21D;59343;51.102;5.884;2023-04-28T10:13:06;16.99;80.59
71523;HTU21D;59343;51.102;5.884;2023-04-28T10:15:39;17.05;80.88
71523;HTU21D;59343;51.102;5.884;2023-04-28T10:18:07;17.17;80.30
71523;HTU21D;59343;51.102;5.884;2023-04-28T10:20:56;17.23;80.35
71523;HTU21D;59343;51.102;5.884;2023-04-28T10:24:08;17.39;79.96
71523;HTU21D;59343;51.102;5.884;2023-04-28T10:27:04;17.47;79.21
71523;HTU21D;59343;51.102;5.884;2023-04-28T10:29:35;17.54;78.92
71523;HTU21D;59343;51.102;5.884;2023-04-28T10:32:19;17.65;78.69
71523;HTU21D;59343;51.102;5.884;2023-04-28T10:34:49;17.78;78.39
71523;HTU21D;59343;51.102;5.884;2023-04-28T10:37:16;17.95;78.10
71523;HTU21D;59343;51.102;5.884;2023-04-28T10:43:04;18.53;76.65
71523;HTU21D;59343;51.102;5.884;2023-04-28T10:46:01;18.73;75.34
71523;HTU21D;59343;51.102;5.884;2023-04-28T10:56:30;18.77;73.83
71523;HTU21D;59343;51.102;5.884;2023-04-28T10:59:58;18.62;73.90
71523;HTU21D;59343;51.102;5.884;2023-04-28T11:02:48;18.52;74.40
71523;HTU21D;59343;51.102;5.884;2023-04-28T11:05:18;18.41;74.60
71523;HTU21D;59343;51.102;5.884;2023-04-28T11:11:11;18.26;75.00
71523;HTU21D;59343;51.102;5.884;2023-04-28T11:13:53;18.22;74.89
71523;HTU21D;59343;51.102;5.884;2023-04-28T11:16:40;18.15;75.26
71523;HTU21D;59343;51.102;5.884;2023-04-28T11:19:25;18.20;75.35
71523;HTU21D;59343;51.102;5.884;2023-04-28T11:22:00;18.28;75.15
71523;HTU21D;59343;51.102;5.884;2023-04-28T11:24:38;18.40;74.96
71523;HTU21D;59343;51.102;5.884;2023-04-28T11:27:05;18.58;74.61
71523;HTU21D;59343;51.102;5.884;2023-04-28T11:31:59;19.09;73.49
71523;HTU21D;59343;51.102;5.884;2023-04-28T11:34:25;19.50;73.04
71523;HTU21D;59343;51.102;5.884;2023-04-28T11:36:56;19.89;71.38
71523;HTU21D;59343;51.102;5.884;2023-04-28T11:39:31;20.16;70.13
71523;HTU21D;59343;51.102;5.884;2023-04-28T11:42:33;20.33;68.71
71523;HTU21D;59343;51.102;5.884;2023-04-28T11:45:13;20.57;68.06
71523;HTU21D;59343;51.102;5.884;2023-04-28T11:47:49;20.81;66.99
71523;HTU21D;59343;51.102;5.884;2023-04-28T11:50:35;20.81;66.78
71523;HTU21D;59343;51.102;5.884;2023-04-28T11:53:04;20.92;66.59
71523;HTU21D;59343;51.102;5.884;2023-04-28T12:02:30;20.77;64.95
71523;HTU21D;59343;51.102;5.884;2023-04-28T12:05:05;20.56;64.00
71523;HTU21D;59343;51.102;5.884;2023-04-28T12:08:02;20.37;64.24
71523;HTU21D;59343;51.102;5.884;2023-04-28T12:11:32;20.35;64.41
71523;HTU21D;59343;51.102;5.884;2023-04-28T12:14:04;20.42;64.80
71523;HTU21D;59343;51.102;5.884;2023-04-28T12:16:38;20.57;65.24
71523;HTU21D;59343;51.102;5.884;2023-04-28T12:19:07;20.70;64.11
71523;HTU21D;59343;51.102;5.884;2023-04-28T12:22:10;20.60;63.62
71523;HTU21D;59343;51.102;5.884;2023-04-28T12:28:58;20.45;64.40
71523;HTU21D;59343;51.102;5.884;2023-04-28T12:32:35;20.46;64.26
71523;HTU21D;59343;51.102;5.884;2023-04-28T12:38:59;20.68;64.41
71523;HTU21D;59343;51.102;5.884;2023-04-28T12:42:16;20.78;63.94
71523;HTU21D;59343;51.102;5.884;2023-04-28T12:45:41;21.01;63.27
71523;HTU21D;59343;51.102;5.884;2023-04-28T12:48:16;21.20;62.89
71523;HTU21D;59343;51.102;5.884;2023-04-28T12:58:40;21.55;61.38
71523;HTU21D;59343;51.102;5.884;2023-04-28T13:01:10;21.47;61.50
71523;HTU21D;59343;51.102;5.884;2023-04-28T13:03:39;21.33;61.43
71523;HTU21D;59343;51.102;5.884;2023-04-28T13:06:27;21.09;61.70
71523;HTU21D;59343;51.102;5.884;2023-04-28T13:14:06;21.00;61.84
71523;HTU21D;59343;51.102;5.884;2023-04-28T13:21:57;21.05;60.96
71523;HTU21D;59343;51.102;5.884;2023-04-28T13:24:32;20.94;60.77
71523;HTU21D;59343;51.102;5.884;2023-04-28T13:27:05;20.90;60.99
71523;HTU21D;59343;51.102;5.884;2023-04-28T13:29:35;20.86;60.83
71523;HTU21D;59343;51.102;5.884;2023-04-28T13:32:05;20.85;61.12
71523;HTU21D;59343;51.102;5.884;2023-04-28T13:34:37;21.01;60.98
71523;HTU21D;59343;51.102;5.884;2023-04-28T13:37:03;21.07;61.02
71523;HTU21D;59343;51.102;5.884;2023-04-28T13:39:30;21.19;60.99
71523;HTU21D;59343;51.102;5.884;2023-04-28T13:41:57;21.33;60.67
71523;HTU21D;59343;51.102;5.884;2023-04-28T13:44:23;21.51;60.62
71523;HTU21D;59343;51.102;5.884;2023-04-28T13:46:51;21.50;59.91
71523;HTU21D;59343;51.102;5.884;2023-04-28T13:49:18;21.38;60.09
71523;HTU21D;59343;51.102;5.884;2023-04-28T13:51:45;21.27;60.35
71523;HTU21D;59343;51.102;5.884;2023-04-28T13:54:11;21.13;60.29
71523;HTU21D;59343;51.102;5.884;2023-04-28T13:56:37;21.01;60.41
71523;HTU21D;59343;51.102;5.884;2023-04-28T13:59:03;20.79;61.39
71523;HTU21D;59343;51.102;5.884;2023-04-28T14:01:36;20.76;61.93
71523;HTU21D;59343;51.102;5.884;2023-04-28T14:04:02;20.65;62.18
71523;HTU21D;59343;51.102;5.884;2023-04-28T14:06:29;20.62;62.70
71523;HTU21D;59343;51.102;5.884;2023-04-28T14:08:55;20.64;62.57
71523;HTU21D;59343;51.102;5.884;2023-04-28T14:11:40;20.59;62.64
71523;HTU21D;59343;51.102;5.884;2023-04-28T14:21:06;20.15;63.08
71523;HTU21D;59343;51.102;5.884;2023-04-28T14:23:54;19.91;63.37
71523;HTU21D;59343;51.102;5.884;2023-04-28T14:26:20;19.76;63.70
71523;HTU21D;59343;51.102;5.884;2023-04-28T14:29:24;19.63;64.28
71523;HTU21D;59343;51.102;5.884;2023-04-28T14:32:39;19.45;64.50
71523;HTU21D;59343;51.102;5.884;2023-04-28T14:35:30;19.30;64.92
71523;HTU21D;59343;51.102;5.884;2023-04-28T14:38:23;19.40;64.52
71523;HTU21D;59343;51.102;5.884;2023-04-28T14:40:50;19.42;64.18
71523;HTU21D;59343;51.102;5.884;2023-04-28T14:47:44;19.41;63.69
71523;HTU21D;59343;51.102;5.884;2023-04-28T14:51:07;19.47;63.32
71523;HTU21D;59343;51.102;5.884;2023-04-28T14:53:41;19.45;63.02
71523;HTU21D;59343;51.102;5.884;2023-04-28T15:36:24;18.41;65.33
71523;HTU21D;59343;51.102;5.884;2023-04-28T15:39:05;18.39;65.30
71523;HTU21D;59343;51.102;5.884;2023-04-28T15:41:55;18.43;65.31
71523;HTU21D;59343;51.102;5.884;2023-04-28T15:44:40;18.42;65.27
71523;HTU21D;59343;51.102;5.884;2023-04-28T15:47:40;18.37;65.10
71523;HTU21D;59343;51.102;5.884;2023-04-28T15:51:23;18.28;65.30
71523;HTU21D;59343;51.102;5.884;2023-04-28T15:53:56;18.26;65.36
71523;HTU21D;59343;51.102;5.884;2023-04-28T15:56:22;18.18;65.37
71523;HTU21D;59343;51.102;5.884;2023-04-28T15:59:03;18.11;65.71
71523;HTU21D;59343;51.102;5.884;2023-04-28T16:02:20;18.03;65.98
71523;HTU21D;59343;51.102;5.884;2023-04-28T16:04:57;18.02;66.20
71523;HTU21D;59343;51.102;5.884;2023-04-28T16:07:52;18.04;66.27
71523;HTU21D;59343;51.102;5.884;2023-04-28T16:10:23;18.05;66.40
71523;HTU21D;59343;51.102;5.884;2023-04-28T16:18:10;17.79;67.16
71523;HTU21D;59343;51.102;5.884;2023-04-28T16:20:48;17.77;67.32
71523;HTU21D;59343;51.102;5.884;2023-04-28T16:23:42;17.78;67.37
71523;HTU21D;59343;51.102;5.884;2023-04-28T16:26:36;17.83;67.30
71523;HTU21D;59343;51.102;5.884;2023-04-28T16:29:28;17.84;67.24
71523;HTU21D;59343;51.102;5.884;2023-04-28T16:31:55;17.92;67.19
71523;HTU21D;59343;51.102;5.884;2023-04-28T16:35:10;17.92;67.16
71523;HTU21D;59343;51.102;5.884;2023-04-28T16:37:46;17.97;67.10
71523;HTU21D;59343;51.102;5.884;2023-04-28T16:40:14;17.97;66.92
71523;HTU21D;59343;51.102;5.884;2023-04-28T16:42:41;17.94;66.81
71523;HTU21D;59343;51.102;5.884;2023-04-28T16:45:11;17.85;66.96
71523;HTU21D;59343;51.102;5.884;2023-04-28T16:47:38;17.83;67.16
71523;HTU21D;59343;51.102;5.884;2023-04-28T16:50:11;17.83;67.24
71523;HTU21D;59343;51.102;5.884;2023-04-28T16:52:39;17.80;67.39
71523;HTU21D;59343;51.102;5.884;2023-04-28T16:55:09;17.70;67.56
71523;HTU21D;59343;51.102;5.884;2023-04-28T16:57:35;17.69;67.81
71523;HTU21D;59343;51.102;5.884;2023-04-28T17:00:10;17.66;67.88
71523;HTU21D;59343;51.102;5.884;2023-04-28T17:02:36;17.63;68.00
71523;HTU21D;59343;51.102;5.884;2023-04-28T17:05:06;17.60;68.10
71523;HTU21D;59343;51.102;5.884;2023-04-28T17:07:33;17.55;68.35
71523;HTU21D;59343;51.102;5.884;2023-04-28T17:09:59;17.52;68.44
71523;HTU21D;59343;51.102;5.884;2023-04-28T17:12:25;17.51;68.60
71523;HTU21D;59343;51.102;5.884;2023-04-28T17:14:51;17.46;68.62
71523;HTU21D;59343;51.102;5.884;2023-04-28T17:17:17;17.49;68.71
71523;HTU21D;59343;51.102;5.884;2023-04-28T17:19:44;17.52;68.78
71523;HTU21D;59343;51.102;5.884;2023-04-28T17:22:13;17.51;68.78
71523;HTU21D;59343;51.102;5.884;2023-04-28T17:25:09;17.53;68.68
71523;HTU21D;59343;51.102;5.884;2023-04-28T17:27:36;17.52;68.84
71523;HTU21D;59343;51.102;5.884;2023-04-28T17:30:02;17.54;68.87
71523;HTU21D;59343;51.102;5.884;2023-04-28T17:32:29;17.50;68.86
71523;HTU21D;59343;51.102;5.884;2023-04-28T17:34:57;17.49;69.02
71523;HTU21D;59343;51.102;5.884;2023-04-28T17:37:24;17.46;69.16
71523;HTU21D;59343;51.102;5.884;2023-04-28T17:39:51;17.39;69.45
71523;HTU21D;59343;51.102;5.884;2023-04-28T17:42:17;17.38;69.58
71523;HTU21D;59343;51.102;5.884;2023-04-28T17:44:43;17.40;69.49
71523;HTU21D;59343;51.102;5.884;2023-04-28T17:47:09;17.38;69.47
71523;HTU21D;59343;51.102;5.884;2023-04-28T17:49:37;17.35;69.58
71523;HTU21D;59343;51.102;5.884;2023-04-28T20:37:00;15.44;80.07
71523;HTU21D;59343;51.102;5.884;2023-04-28T20:39:29;15.44;80.27
71523;HTU21D;59343;51.102;5.884;2023-04-28T20:41:56;15.39;80.36
71523;HTU21D;59343;51.102;5.884;2023-04-28T20:44:23;15.37;80.78
71523;HTU21D;59343;51.102;5.884;2023-04-28T20:46:50;15.26;81.15
71523;HTU21D;59343;51.102;5.884;2023-04-28T20:49:26;15.22;81.67
71523;HTU21D;59343;51.102;5.884;2023-04-28T20:51:52;15.23;81.87
71523;HTU21D;59343;51.102;5.884;2023-04-28T20:54:22;15.21;82.10
71523;HTU21D;59343;51.102;5.884;2023-04-28T20:56:53;15.17;82.52
71523;HTU21D;59343;51.102;5.884;2023-04-28T20:59:23;15.12;82.88
71523;HTU21D;59343;51.102;5.884;2023-04-28T21:01:53;15.12;83.13
71523;HTU21D;59343;51.102;5.884;2023-04-28T21:04:20;15.15;83.36
71523;HTU21D;59343;51.102;5.884;2023-04-28T21:06:50;15.18;83.20
71523;HTU21D;59343;51.102;5.884;2023-04-28T21:09:18;15.11;83.57
71523;HTU21D;59343;51.102;5.884;2023-04-28T21:11:47;15.06;83.84
71523;HTU21D;59343;51.102;5.884;2023-04-28T21:14:13;15.02;84.12
71523;HTU21D;59343;51.102;5.884;2023-04-28T21:16:40;15.07;84.27
71523;HTU21D;59343;51.102;5.884;2023-04-28T21:19:08;15.03;84.19
71523;HTU21D;59343;51.102;5.884;2023-04-28T21:21:35;15.01;84.39
71523;HTU21D;59343;51.102;5.884;2023-04-28T21:24:05;14.98;84.40
71523;HTU21D;59343;51.102;5.884;2023-04-28T21:26:35;15.02;84.53
71523;HTU21D;59343;51.102;5.884;2023-04-28T21:29:01;15.01;84.61
71523;HTU21D;59343;51.102;5.884;2023-04-28T21:31:30;15.08;84.64
71523;HTU21D;59343;51.102;5.884;2023-04-28T21:33:59;15.08;84.00
71523;HTU21D;59343;51.102;5.884;2023-04-28T21:36:26;15.08;83.63
71523;HTU21D;59343;51.102;5.884;2023-04-28T21:38:53;15.10;83.38